Flight Track Log - Related Links

Times and Time Zones

All times are in EDT time to prevent confusion due to time zone crossing. See the SKW5550 flight status page for this flight to view local times or setup timezone preferences in your user account.

Time Position Orientation Groundspeed Altitude Reporting Facility
EDT Latitude Longitude Course Direction KTS MPH feet Rate Location/Type
Mon 05:54:29 PM 39.9333 -104.7000 270° West 202 232 7,400  Level Denver TRACON
Mon 05:55:35 PM 39.9333 -104.8000 270° West 249 287 10,000 2,200 Climbing Denver TRACON
Mon 05:56:29 PM 39.9167 -104.8833 255° West 265 305 11,800 1,667 Climbing Denver TRACON
Mon 05:57:05 PM 39.8975 -104.9375 245° Southwest 277 319 12,500 1,102 Climbing Denver Center
Mon 05:58:07 PM 39.8728 -105.0456 253° West 308 354 13,600 1,597 Climbing Denver Center
Mon 05:59:09 PM 39.8708 -105.1783 269° West 338 389 15,800 1,742 Climbing Denver Center
Mon 06:00:11 PM 39.8875 -105.2953 281° West 336 387 17,200 1,317 Climbing Denver Center
Mon 06:01:12 PM 39.9153 -105.4239 286° West 346 398 18,500 1,268 Climbing Denver Center
Mon 06:02:14 PM 39.9172 -105.5500 271° West 368 423 19,800 1,113 Climbing Denver Center
Mon 06:03:16 PM 39.8825 -105.6756 250° West 375 432 20,800 1,403 Climbing Denver Center
Mon 06:04:18 PM 39.8428 -105.8114 249° West 374 430 22,700 1,548 Climbing Denver Center
Mon 06:05:20 PM 39.8217 -105.9297 257° West 352 405 24,000 976 Climbing Denver Center
Mon 06:06:21 PM 39.7992 -106.0578 257° West 361 415 24,700 683 Climbing Denver Center
Mon 06:07:23 PM 39.8142 -106.1922 278° West 378 435 25,400 677 Climbing Denver Center
Mon 06:08:25 PM 39.8333 -106.3275 280° West 383 441 26,100 774 Climbing Denver Center
Mon 06:09:27 PM 39.8114 -106.4931 260° West 385 443 27,000 878 Climbing Denver Center
Mon 06:10:28 PM 39.7994 -106.6319 264° West 390 449 27,900 829 Climbing Denver Center
Mon 06:11:30 PM 39.7983 -106.7664 269° West 378 435 28,700 629 Climbing Denver Center
Mon 06:12:32 PM 39.8128 -106.9017 278° West 381 438 29,200 581 Climbing Denver Center
Mon 06:13:34 PM 39.8306 -107.0367 280° West 382 440 29,900 829 Climbing Denver Center
Mon 06:14:35 PM 39.8461 -107.1697 279° West 375 432 30,900 829 Climbing Denver Center
Mon 06:15:37 PM 39.8614 -107.3069 278° West 358 412 31,600 532 Climbing Denver Center
Mon 06:16:39 PM 39.8781 -107.4511 279° West 360 414 32,000 195 Climbing Denver Center
Mon 06:17:40 PM 39.8919 -107.5767 278° West 365 420 32,000  Level Denver Center
Mon 06:18:42 PM 39.9092 -107.7286 278° West 378 435 32,000  Level Denver Center
Mon 06:19:44 PM 39.9242 -107.8617 278° West 386 444 32,000  Level Denver Center
Mon 06:20:45 PM 39.9386 -107.9967 278° West 393 452 32,000  Level Denver Center
Mon 06:21:47 PM 39.9572 -108.1553 279° West 397 457 32,000  Level Denver Center
Mon 06:22:49 PM 39.9722 -108.2939 278° West 403 464 32,000  Level Denver Center
Mon 06:23:50 PM 39.9894 -108.4542 278° West 403 464 32,000  Level Denver Center
Mon 06:24:52 PM 40.0033 -108.5908 278° West 400 460 32,000  Level Denver Center
Mon 06:25:54 PM 40.0197 -108.7486 278° West 397 457 32,000  Level Denver Center
Mon 06:26:55 PM 40.0331 -108.8836 277° West 395 455 32,000  Level Denver Center
Mon 06:27:57 PM 40.0489 -109.0394 278° West 391 450 32,000  Level Denver Center
Mon 06:28:46 PM 40.0603 -109.1514 278° West 392 451 32,000  Level Salt Lake Center
Mon 06:29:47 PM 40.0733 -109.2850 277° West 390 449 32,000  Level Salt Lake Center
Mon 06:30:49 PM 40.0883 -109.4433 277° West 393 452 32,000  Level Salt Lake Center
Mon 06:31:51 PM 40.1019 -109.5794 277° West 396 456 32,000  Level Salt Lake Center
Mon 06:32:52 PM 40.1175 -109.7394 277° West 397 457 32,000  Level Salt Lake Center
Mon 06:33:54 PM 40.1308 -109.8769 277° West 399 459 32,000  Level Salt Lake Center
Mon 06:34:56 PM 40.1436 -110.0147 277° West 399 459 32,000  Level Salt Lake Center
Mon 06:35:58 PM 40.1575 -110.1761 276° West 400 460 32,000  Level Salt Lake Center
Mon 06:36:59 PM 40.1703 -110.3147 277° West 401 461 32,000  Level Salt Lake Center
Mon 06:38:01 PM 40.1853 -110.4778 277° West 404 465 32,000  Level Salt Lake Center
Mon 06:39:03 PM 40.1972 -110.6164 276° West 403 464 32,000  Level Salt Lake Center
Mon 06:40:04 PM 40.2108 -110.7792 276° West 402 463 32,000  Level Salt Lake Center
Mon 06:41:06 PM 40.2239 -110.9175 277° West 400 460 32,000  Level Salt Lake Center
Mon 06:42:08 PM 40.2347 -111.0542 276° West 401 461 32,000  Level Salt Lake Center
Mon 06:43:09 PM 40.2467 -111.1992 276° West 401 461 32,000  Level Salt Lake Center
Mon 06:44:11 PM 40.2611 -111.3736 276° West 402 463 32,000  Level Salt Lake Center
Mon 06:45:13 PM 40.2725 -111.5197 276° West 403 464 32,000  Level Salt Lake Center
Mon 06:46:14 PM 40.2847 -111.6664 276° West 405 466 32,000  Level Salt Lake Center
Mon 06:47:16 PM 40.2964 -111.8175 276° West 415 478 32,000  Level Salt Lake Center
Mon 06:48:18 PM 40.3072 -111.9622 276° West 403 464 32,000  Level Salt Lake Center
Mon 06:49:20 PM 40.3178 -112.1117 275° West 406 467 32,000  Level Salt Lake Center
Mon 06:50:21 PM 40.3278 -112.2594 275° West 406 467 32,000  Level Salt Lake Center
Mon 06:51:23 PM 40.3389 -112.4064 276° West 403 464 32,000  Level Salt Lake Center
Mon 06:52:25 PM 40.3517 -112.5833 275° West 405 466 32,000  Level Salt Lake Center
Mon 06:53:26 PM 40.3614 -112.7311 275° West 408 470 32,000  Level Salt Lake Center
Mon 06:54:28 PM 40.3717 -112.8778 275° West 406 467 32,000  Level Salt Lake Center
Mon 06:55:30 PM 40.3811 -113.0244 275° West 405 466 32,000  Level Salt Lake Center
Mon 06:56:31 PM 40.3917 -113.1692 276° West 400 460 32,000  Level Salt Lake Center
Mon 06:57:33 PM 40.4008 -113.3161 275° West 404 465 32,000  Level Salt Lake Center
Mon 06:58:35 PM 40.4103 -113.4633 275° West 405 466 32,000  Level Salt Lake Center
Mon 06:59:36 PM 40.4183 -113.6100 274° West 404 465 32,000  Level Salt Lake Center
Mon 07:00:38 PM 40.4300 -113.7853 275° West 403 464 32,000  Level Salt Lake Center
Mon 07:01:40 PM 40.4386 -113.9303 275° West 400 460 32,000  Level Salt Lake Center
Mon 07:02:41 PM 40.4450 -114.0753 273° West 400 460 32,000  Level Salt Lake Center
Mon 07:03:43 PM 40.4522 -114.2200 274° West 399 459 32,000  Level Salt Lake Center
Mon 07:04:45 PM 40.4608 -114.3658 274° West 401 461 32,000  Level Salt Lake Center
Mon 07:05:46 PM 40.4675 -114.5111 273° West 401 461 32,000  Level Salt Lake Center
Mon 07:06:48 PM 40.4753 -114.6561 274° West 400 460 32,000  Level Salt Lake Center
Mon 07:07:49 PM 40.4844 -114.8258 274° West 399 459 32,000  Level Salt Lake Center
Mon 07:08:51 PM 40.4917 -114.9650 274° West 400 460 32,000  Level Salt Lake Center
Mon 07:09:53 PM 40.5017 -115.1283 275° West 401 461 32,000  Level Salt Lake Center
Mon 07:10:54 PM 40.5047 -115.2669 272° West 398 458 32,000  Level Salt Lake Center
Mon 07:11:56 PM 40.5106 -115.4044 273° West 395 455 32,000  Level Salt Lake Center
Mon 07:12:57 PM 40.5161 -115.5644 273° West 394 453 32,000  Level Salt Lake Center
Mon 07:13:59 PM 40.5236 -115.7006 274° West 392 451 32,000  Level Salt Lake Center
Mon 07:15:00 PM 40.5303 -115.8567 273° West 385 443 32,000  Level Salt Lake Center
Mon 07:16:02 PM 40.5358 -115.9889 273° West 381 438 32,000  Level Salt Lake Center
Mon 07:17:04 PM 40.5422 -116.1200 274° West 378 435 32,000  Level Salt Lake Center
Mon 07:18:05 PM 40.5478 -116.2722 273° West 375 432 32,000  Level Salt Lake Center
Mon 07:19:07 PM 40.5517 -116.4022 272° West 372 428 32,000  Level Salt Lake Center
Mon 07:20:08 PM 40.5572 -116.5544 273° West 374 430 32,000  Level Salt Lake Center
Mon 07:21:10 PM 40.5622 -116.6850 273° West 377 434 32,000  Level Salt Lake Center
Mon 07:22:11 PM 40.5661 -116.8383 272° West 379 436 32,000  Level Salt Lake Center
Mon 07:23:13 PM 40.5436 -116.9700 257° West 410 472 32,000  Level Salt Lake Center
Mon 07:24:14 PM 40.4925 -117.1225 246° West 414 476 32,000  Level Salt Lake Center
Mon 07:25:16 PM 40.4458 -117.2536 245° Southwest 416 479 32,000  Level Salt Lake Center
Mon 07:26:18 PM 40.3908 -117.4075 245° Southwest 418 481 32,000  Level Salt Lake Center
Mon 07:27:19 PM 40.3425 -117.5397 244° Southwest 420 483 32,000  Level Salt Lake Center
Mon 07:28:21 PM 40.2933 -117.6725 244° Southwest 423 487 32,000  Level Salt Lake Center
Mon 07:29:22 PM 40.2350 -117.8283 244° Southwest 427 491 32,000  Level Salt Lake Center
Mon 07:30:23 PM 40.1806 -117.9781 245° Southwest 426 490 32,000  Level Oakland Center
Mon 07:31:25 PM 40.1278 -118.1183 244° Southwest 431 496 32,000  Level Oakland Center
Mon 07:32:26 PM 40.0750 -118.2572 244° Southwest 428 493 32,000  Level Oakland Center
Mon 07:33:27 PM 40.0214 -118.3964 243° Southwest 431 496 32,000  Level Oakland Center
Mon 07:34:29 PM 39.9686 -118.5353 244° Southwest 430 495 32,000  Level Oakland Center
Mon 07:35:30 PM 39.9150 -118.6753 244° Southwest 432 497 32,000  Level Oakland Center
Mon 07:36:31 PM 39.8617 -118.8128 243° Southwest 431 496 32,000 -146 Level Oakland Center
Mon 07:37:33 PM 39.8092 -118.9511 244° Southwest 431 496 31,700 -732 Descending Oakland Center
Mon 07:38:34 PM 39.7411 -119.1219 243° Southwest 446 513 30,500 -1,279 Descending Oakland Center
Mon 07:39:35 PM 39.6847 -119.2669 243° Southwest 451 519 29,100 -1,366 Descending Oakland Center
Mon 07:40:37 PM 39.6269 -119.4103 242° Southwest 452 520 27,700 -1,366 Descending Oakland Center
Mon 07:41:38 PM 39.5700 -119.5561 243° Southwest 454 522 26,300 -1,377 Descending Oakland Center
Mon 07:42:39 PM 39.5067 -119.6992 240° Southwest 458 527 24,900 -1,279 Descending Oakland Center
Mon 07:43:40 PM 39.4397 -119.8419 239° Southwest 464 534 23,700 -1,171 Descending Oakland Center
Mon 07:44:42 PM 39.3897 -119.9889 246° West 452 520 22,500 -1,220 Descending Oakland Center
Mon 07:45:43 PM 39.3372 -120.1406 246° West 441 507 21,200 -1,230 Descending Oakland Center
Mon 07:46:44 PM 39.2881 -120.2811 246° West 432 497 20,000 -1,171 Descending Oakland Center
Mon 07:47:46 PM 39.2386 -120.4225 246° West 433 498 18,800 -1,366 Descending Oakland Center
Mon 07:48:47 PM 39.1875 -120.5589 244° Southwest 427 491 17,200 -2,262 Descending Oakland Center
Mon 07:49:48 PM 39.1317 -120.7183 246° West 412 474 14,200 -2,829 Descending Oakland Center
Mon 07:50:50 PM 39.0953 -120.8411 249° West 374 430 11,400 -2,049 Descending Oakland Center
Mon 07:51:51 PM 39.0678 -120.9567 253° West 346 398 10,000 -689 Descending Oakland Center
Mon 07:52:52 PM 39.0464 -121.0558 255° West 295 339 10,000  Level Oakland Center
Mon 07:53:39 PM 39.0333 -121.1333 258° West 289 333 10,000  Level Northern Cal TRACON
Mon 07:54:39 PM 39.0000 -121.2333 247° West 288 331 10,000 -750 Level Northern Cal TRACON
Mon 07:55:39 PM 38.9833 -121.3333 258° West 289 333 8,500 -1,700 Descending Northern Cal TRACON
Mon 07:56:39 PM 38.9667 -121.4333 258° West 284 327 6,600 -1,250 Descending Northern Cal TRACON
Mon 07:57:39 PM 38.9333 -121.5333 247° West 279 321 6,000 -400 Descending Northern Cal TRACON
Mon 07:58:39 PM 38.9167 -121.6167 256° West 286 329 5,800 -600 Descending Northern Cal TRACON
Mon 07:59:39 PM 38.8500 -121.6500 201° Southwest 267 307 4,800 -1,000 Descending Northern Cal TRACON
Mon 08:00:39 PM 38.7833 -121.6833 201° Southwest 265 305 3,800 -900 Descending Northern Cal TRACON
Mon 08:01:39 PM 38.7000 -121.6833 180° South 256 295 3,000 -400 Descending Northern Cal TRACON
Mon 08:02:39 PM 38.6333 -121.6667 169° South 225 259 3,000 -350 Level Northern Cal TRACON
Mon 08:03:39 PM 38.6000 -121.6333 142° Southeast 198 228 2,300 -650 Descending Northern Cal TRACON
Mon 08:04:39 PM 38.6167 -121.5833 67° East 166 191 1,700 -800 Descending Northern Cal TRACON
Mon 08:05:39 PM 38.6500 -121.5833 360° North 143 165 700 -1,000 Descending Northern Cal TRACON

Login

Don't have an account? Register now (free) for customized features, flight alerts, and more!